Time;durP1;ratioP1;P1;durP2;ratioP2;P2;SDS_P1;SDS_P2;PMS_P1;PMS_P2;Temp;Humidity;BMP_temperature;BMP_pressure;BME280_temperature;BME280_humidity;BME280_pressure;Samples;Min_cycle;Max_cycle;Signal;HPM_P1;HPM_P2
2021/08/31 00:00:09;;;;;;;7.18;3.67;;;;;;;;;;5060342;28;20427;-82
2021/08/31 00:02:35;;;;;;;7.53;3.25;;;;;;;;;;5055452;28;20169;-81
2021/08/31 00:05:01;;;;;;;5.72;3.83;;;;;;;;;;5047818;28;20209;-82
2021/08/31 00:07:27;;;;;;;6.80;3.40;;;;;;;;;;5044903;28;20182;-82
2021/08/31 00:09:53;;;;;;;9.43;4.63;;;;;;;;;;5045995;28;20212;-83
2021/08/31 00:12:20;;;;;;;4.25;3.42;;;;;;;;;;5041632;28;20177;-82
2021/08/31 00:14:46;;;;;;;6.72;3.70;;;;;;;;;;5061992;28;20173;-82
2021/08/31 00:17:16;;;;;;;9.13;4.10;;;;;;;;;;5045318;28;20185;-83
2021/08/31 00:19:42;;;;;;;5.53;3.20;;;;;;;;;;5047249;28;20464;-82
2021/08/31 00:22:08;;;;;;;11.20;3.90;;;;;;;;;;5056452;28;20192;-83
2021/08/31 00:24:34;;;;;;;8.25;3.50;;;;;;;;;;5040288;28;20803;-83
2021/08/31 00:27:00;;;;;;;7.83;3.53;;;;;;;;;;5062649;28;20212;-83
2021/08/31 00:29:26;;;;;;;13.23;3.97;;;;;;;;;;5045093;28;20993;-82
2021/08/31 00:31:52;;;;;;;3.77;2.77;;;;;;;;;;5045518;28;20182;-82
2021/08/31 00:34:18;;;;;;;7.23;3.50;;;;;;;;;;5044645;28;20439;-82
2021/08/31 00:36:44;;;;;;;8.77;4.15;;;;;;;;;;5042073;28;20445;-83
2021/08/31 00:39:10;;;;;;;10.25;4.05;;;;;;;;;;5044716;28;20184;-82
2021/08/31 00:41:36;;;;;;;8.93;3.97;;;;;;;;;;5047091;28;20260;-82
2021/08/31 00:44:03;;;;;;;11.38;4.25;;;;;;;;;;5045711;28;20181;-84
2021/08/31 00:46:29;;;;;;;6.93;3.50;;;;;;;;;;5044996;28;20216;-82
2021/08/31 00:48:56;;;;;;;6.10;3.65;;;;;;;;;;5044626;28;20238;-82
2021/08/31 00:51:23;;;;;;;10.48;5.72;;;;;;;;;;5056247;28;20190;-82
2021/08/31 00:53:49;;;;;;;5.45;4.30;;;;;;;;;;5048306;28;20170;-82
2021/08/31 00:56:16;;;;;;;7.60;3.08;;;;;;;;;;5045728;28;20220;-82
2021/08/31 00:58:42;;;;;;;4.03;3.35;;;;;;;;;;5044365;28;20206;-82
2021/08/31 01:01:08;;;;;;;8.10;4.10;;;;;;;;;;5045650;28;20187;-82
2021/08/31 01:03:34;;;;;;;6.15;4.18;;;;;;;;;;5041773;28;20182;-81
2021/08/31 01:06:01;;;;;;;7.45;3.90;;;;;;;;;;5046502;28;20185;-81
2021/08/31 01:08:28;;;;;;;6.30;3.30;;;;;;;;;;5045064;28;20252;-82
2021/08/31 01:10:54;;;;;;;9.43;4.38;;;;;;;;;;5045800;28;20643;-82
2021/08/31 01:13:21;;;;;;;11.85;4.38;;;;;;;;;;5048417;28;20181;-82
2021/08/31 01:15:48;;;;;;;7.57;3.90;;;;;;;;;;5057127;28;20178;-82
2021/08/31 01:18:21;;;;;;;8.05;3.80;;;;;;;;;;5041561;28;20176;-81
2021/08/31 01:20:48;;;;;;;5.22;3.88;;;;;;;;;;5061623;28;20425;-82
2021/08/31 01:23:15;;;;;;;5.65;3.33;;;;;;;;;;5046793;28;20186;-82
2021/08/31 01:25:41;;;;;;;4.78;3.65;;;;;;;;;;5045667;28;20237;-82
2021/08/31 01:28:07;;;;;;;11.23;3.53;;;;;;;;;;5046564;28;20176;-82
2021/08/31 01:30:33;;;;;;;5.40;3.00;;;;;;;;;;5059247;28;20631;-82
2021/08/31 01:33:00;;;;;;;8.30;3.40;;;;;;;;;;5049049;28;20425;-81
2021/08/31 01:35:27;;;;;;;6.50;3.75;;;;;;;;;;5061017;28;20590;-82
2021/08/31 01:37:53;;;;;;;5.53;3.10;;;;;;;;;;5045059;28;20192;-82
2021/08/31 01:40:19;;;;;;;5.57;3.03;;;;;;;;;;5048973;28;20757;-83
2021/08/31 01:42:45;;;;;;;3.75;2.80;;;;;;;;;;5046685;28;20227;-82
2021/08/31 01:45:11;;;;;;;9.73;3.25;;;;;;;;;;5044678;28;20178;-82
2021/08/31 01:47:38;;;;;;;3.33;3.05;;;;;;;;;;5040723;28;20530;-82
2021/08/31 01:50:05;;;;;;;8.02;3.55;;;;;;;;;;5049704;28;20269;-82
2021/08/31 01:52:31;;;;;;;4.82;2.97;;;;;;;;;;5049531;28;20253;-82
2021/08/31 01:54:57;;;;;;;8.33;3.53;;;;;;;;;;5047078;28;20212;-82
2021/08/31 01:57:23;;;;;;;8.03;4.07;;;;;;;;;;5044417;28;20456;-82
2021/08/31 01:59:49;;;;;;;9.40;4.37;;;;;;;;;;5049923;28;20428;-82
2021/08/31 02:02:15;;;;;;;11.83;3.80;;;;;;;;;;5048509;28;20448;-83
2021/08/31 02:04:41;;;;;;;5.97;4.77;;;;;;;;;;5047277;28;20448;-82
2021/08/31 02:07:07;;;;;;;3.93;3.53;;;;;;;;;;5047852;28;20439;-81
2021/08/31 02:09:33;;;;;;;7.07;3.20;;;;;;;;;;5042651;28;20471;-82
2021/08/31 02:11:59;;;;;;;5.43;4.33;;;;;;;;;;5065358;28;20444;-82
2021/08/31 02:14:25;;;;;;;7.93;3.73;;;;;;;;;;5049069;28;20416;-82
2021/08/31 02:16:51;;;;;;;6.33;2.63;;;;;;;;;;5050080;28;20441;-82
2021/08/31 02:19:16;;;;;;;6.50;3.15;;;;;;;;;;5057380;28;20830;-81
2021/08/31 02:21:43;;;;;;;11.03;3.10;;;;;;;;;;5045878;28;20194;-82
2021/08/31 02:24:09;;;;;;;6.97;3.55;;;;;;;;;;5046297;28;20421;-82
2021/08/31 02:26:36;;;;;;;10.43;5.13;;;;;;;;;;5061626;28;20181;-82
2021/08/31 02:29:02;;;;;;;5.68;3.38;;;;;;;;;;5055429;28;20208;-82
2021/08/31 02:31:28;;;;;;;6.15;3.40;;;;;;;;;;5054180;28;20201;-82
2021/08/31 02:33:54;;;;;;;10.60;4.37;;;;;;;;;;5047215;28;20227;-82
2021/08/31 02:36:20;;;;;;;9.10;3.22;;;;;;;;;;5043824;28;20441;-82
2021/08/31 02:38:46;;;;;;;6.18;2.92;;;;;;;;;;5049215;28;20177;-82
2021/08/31 02:41:12;;;;;;;13.45;3.38;;;;;;;;;;5044566;28;20182;-82
2021/08/31 02:43:38;;;;;;;6.38;3.65;;;;;;;;;;5047154;28;20186;-81
2021/08/31 02:46:04;;;;;;;6.37;3.60;;;;;;;;;;5047812;28;20225;-82
2021/08/31 02:48:30;;;;;;;4.17;2.80;;;;;;;;;;5040520;28;20491;-82
2021/08/31 02:50:56;;;;;;;8.00;3.65;;;;;;;;;;5049786;28;20430;-82
2021/08/31 02:53:22;;;;;;;4.55;3.08;;;;;;;;;;5035541;28;20186;-82
2021/08/31 02:55:48;;;;;;;8.27;3.63;;;;;;;;;;5049297;28;20203;-81
2021/08/31 02:58:14;;;;;;;11.80;3.67;;;;;;;;;;5057351;28;20446;-82
2021/08/31 03:00:42;;;;;;;6.37;3.07;;;;;;;;;;5043789;28;20182;-82
2021/08/31 03:03:12;;;;;;;5.88;3.20;;;;;;;;;;5046990;28;20471;-82
2021/08/31 03:05:38;;;;;;;8.55;3.45;;;;;;;;;;5047447;28;20194;-82
2021/08/31 03:08:04;;;;;;;9.00;3.57;;;;;;;;;;5052556;28;20216;-82
2021/08/31 03:10:30;;;;;;;7.43;3.88;;;;;;;;;;5054104;28;20434;-82
2021/08/31 03:12:56;;;;;;;9.90;3.47;;;;;;;;;;5045397;28;20239;-82
2021/08/31 03:15:22;;;;;;;7.83;3.00;;;;;;;;;;5041801;28;20448;-82
2021/08/31 03:17:48;;;;;;;5.57;3.17;;;;;;;;;;5058596;28;20386;-82
2021/08/31 03:20:14;;;;;;;9.43;3.40;;;;;;;;;;5046960;28;20533;-82
2021/08/31 03:22:40;;;;;;;6.77;3.00;;;;;;;;;;5047091;28;20185;-82
2021/08/31 03:25:08;;;;;;;7.15;3.03;;;;;;;;;;5046887;28;20491;-82
2021/08/31 03:27:34;;;;;;;8.25;3.45;;;;;;;;;;5042489;28;20245;-82
2021/08/31 03:30:00;;;;;;;6.10;3.90;;;;;;;;;;5047916;28;20210;-82
2021/08/31 03:32:25;;;;;;;9.57;3.33;;;;;;;;;;5048483;28;20420;-82
2021/08/31 03:34:51;;;;;;;7.90;4.03;;;;;;;;;;5047814;28;20427;-82
2021/08/31 03:37:17;;;;;;;7.37;3.43;;;;;;;;;;5046735;28;20807;-82
2021/08/31 03:39:43;;;;;;;5.80;2.90;;;;;;;;;;5043498;28;20946;-82
2021/08/31 03:42:10;;;;;;;7.07;3.20;;;;;;;;;;5045658;28;20440;-82
2021/08/31 03:44:36;;;;;;;10.20;3.92;;;;;;;;;;5046598;28;20425;-82
2021/08/31 03:47:02;;;;;;;5.68;3.85;;;;;;;;;;5046784;28;20192;-83
2021/08/31 03:49:28;;;;;;;5.47;4.10;;;;;;;;;;5045465;28;20197;-82
2021/08/31 03:51:54;;;;;;;8.77;4.10;;;;;;;;;;5044094;28;20443;-82
2021/08/31 03:54:20;;;;;;;8.07;3.67;;;;;;;;;;5041571;28;20197;-83
2021/08/31 03:56:45;;;;;;;6.47;3.67;;;;;;;;;;5047868;28;20424;-83
2021/08/31 03:59:11;;;;;;;5.10;4.20;;;;;;;;;;5051401;28;20442;-82
2021/08/31 04:01:37;;;;;;;6.27;3.80;;;;;;;;;;5052907;28;20878;-82
2021/08/31 04:04:04;;;;;;;7.07;3.35;;;;;;;;;;5047209;28;20467;-82
2021/08/31 04:06:30;;;;;;;7.53;3.30;;;;;;;;;;5040552;28;20186;-82
2021/08/31 04:08:56;;;;;;;14.65;3.88;;;;;;;;;;5046843;28;20186;-82
2021/08/31 04:11:22;;;;;;;12.60;5.00;;;;;;;;;;5044771;28;20220;-82
2021/08/31 04:13:48;;;;;;;7.73;3.90;;;;;;;;;;5052567;28;20431;-82
2021/08/31 04:16:14;;;;;;;8.10;3.53;;;;;;;;;;5056494;28;20442;-82
2021/08/31 04:18:40;;;;;;;8.68;4.20;;;;;;;;;;5041974;28;20984;-82
2021/08/31 04:21:06;;;;;;;6.75;3.50;;;;;;;;;;5044123;28;20231;-82
2021/08/31 04:23:32;;;;;;;10.97;4.30;;;;;;;;;;5059172;28;20645;-82
2021/08/31 04:25:58;;;;;;;5.65;4.13;;;;;;;;;;5050008;28;20444;-82
2021/08/31 04:28:24;;;;;;;9.95;4.10;;;;;;;;;;5046200;28;20188;-82
2021/08/31 04:30:50;;;;;;;12.27;3.97;;;;;;;;;;5044183;28;20201;-82
2021/08/31 04:33:16;;;;;;;6.90;3.20;;;;;;;;;;5043175;28;20420;-81
2021/08/31 04:35:42;;;;;;;5.83;3.97;;;;;;;;;;5060640;28;20961;-81
2021/08/31 04:38:08;;;;;;;9.50;4.55;;;;;;;;;;5047795;28;20478;-83
2021/08/31 04:40:34;;;;;;;7.70;3.97;;;;;;;;;;5044425;28;20192;-82
2021/08/31 04:43:00;;;;;;;5.65;3.97;;;;;;;;;;5041145;28;20185;-81
2021/08/31 04:45:26;;;;;;;7.30;5.53;;;;;;;;;;5041496;28;20186;-82
2021/08/31 04:47:52;;;;;;;7.35;4.43;;;;;;;;;;5048327;28;20188;-82
2021/08/31 04:50:18;;;;;;;7.70;4.87;;;;;;;;;;5051555;28;20264;-82
2021/08/31 04:52:46;;;;;;;11.73;5.10;;;;;;;;;;5050881;28;20511;-82
2021/08/31 04:55:12;;;;;;;10.25;5.18;;;;;;;;;;5045546;28;20438;-82
2021/08/31 04:57:38;;;;;;;7.15;4.40;;;;;;;;;;5040199;28;20253;-82
2021/08/31 05:00:04;;;;;;;7.47;4.13;;;;;;;;;;5044234;28;20240;-82
2021/08/31 05:02:32;;;;;;;6.50;4.80;;;;;;;;;;5046892;28;20176;-82
2021/08/31 05:04:58;;;;;;;12.18;5.70;;;;;;;;;;5057554;28;20189;-82
2021/08/31 05:07:24;;;;;;;6.47;5.05;;;;;;;;;;5057417;28;20189;-82
2021/08/31 05:09:50;;;;;;;10.55;5.35;;;;;;;;;;5047470;28;20230;-81
2021/08/31 05:12:16;;;;;;;9.00;5.40;;;;;;;;;;5045807;28;20197;-83
2021/08/31 05:14:42;;;;;;;8.90;4.93;;;;;;;;;;5050695;28;20420;-81
2021/08/31 05:17:08;;;;;;;7.05;5.65;;;;;;;;;;5050147;28;20443;-81
2021/08/31 05:19:34;;;;;;;6.32;5.13;;;;;;;;;;5049577;28;20645;-82
2021/08/31 05:22:04;;;;;;;9.32;5.90;;;;;;;;;;5059988;28;20705;-81
2021/08/31 05:24:31;;;;;;;8.93;5.85;;;;;;;;;;5058894;28;20544;-82
2021/08/31 05:26:57;;;;;;;8.50;5.68;;;;;;;;;;5050412;28;20272;-82
2021/08/31 05:29:23;;;;;;;11.30;6.43;;;;;;;;;;5049470;28;20236;-82
2021/08/31 05:31:49;;;;;;;10.37;5.13;;;;;;;;;;5048013;28;20181;-81
2021/08/31 05:34:15;;;;;;;16.03;5.60;;;;;;;;;;5048473;28;21010;-82
2021/08/31 05:36:41;;;;;;;9.67;5.47;;;;;;;;;;5044450;28;20456;-82
2021/08/31 05:39:07;;;;;;;9.07;6.63;;;;;;;;;;5046766;28;20416;-82
2021/08/31 05:41:36;;;;;;;13.48;7.30;;;;;;;;;;5048145;28;20170;-83
2021/08/31 05:44:02;;;;;;;16.80;7.50;;;;;;;;;;5049663;28;20257;-82
2021/08/31 05:46:29;;;;;;;14.75;8.68;;;;;;;;;;5047584;28;20249;-82
2021/08/31 05:48:55;;;;;;;9.85;7.60;;;;;;;;;;5047095;28;20213;-81
2021/08/31 05:51:21;;;;;;;12.97;7.60;;;;;;;;;;5045233;28;20664;-82
2021/08/31 05:53:47;;;;;;;12.13;7.53;;;;;;;;;;5051389;28;20554;-82
2021/08/31 05:56:13;;;;;;;10.85;6.47;;;;;;;;;;5053237;28;20612;-82
2021/08/31 05:58:39;;;;;;;11.30;7.97;;;;;;;;;;5055776;28;20208;-82
2021/08/31 06:01:05;;;;;;;11.30;8.13;;;;;;;;;;5043131;28;20444;-82
2021/08/31 06:03:31;;;;;;;14.30;8.70;;;;;;;;;;5060330;28;20412;-82
2021/08/31 06:05:57;;;;;;;11.60;7.80;;;;;;;;;;5050246;28;20424;-82
2021/08/31 06:08:23;;;;;;;16.40;9.13;;;;;;;;;;5047298;28;20997;-82
2021/08/31 06:10:49;;;;;;;12.25;7.85;;;;;;;;;;5049719;28;20466;-82
2021/08/31 06:13:15;;;;;;;15.87;7.77;;;;;;;;;;5057909;28;20607;-82
2021/08/31 06:15:41;;;;;;;11.68;8.45;;;;;;;;;;5045813;28;20500;-82
2021/08/31 06:18:07;;;;;;;11.30;7.90;;;;;;;;;;5062551;28;20177;-81
2021/08/31 06:20:33;;;;;;;10.30;7.75;;;;;;;;;;5048427;28;20475;-82
2021/08/31 06:22:59;;;;;;;10.68;8.05;;;;;;;;;;5047939;28;20189;-82
2021/08/31 06:25:25;;;;;;;11.67;7.97;;;;;;;;;;5048761;28;20194;-82
2021/08/31 06:27:51;;;;;;;16.30;8.17;;;;;;;;;;5046020;28;20436;-81
2021/08/31 06:30:17;;;;;;;11.10;8.63;;;;;;;;;;5061481;28;20494;-82
2021/08/31 06:32:43;;;;;;;11.95;8.90;;;;;;;;;;5048687;28;20419;-82
2021/08/31 06:35:09;;;;;;;11.00;9.17;;;;;;;;;;5052994;28;20207;-83
2021/08/31 06:37:35;;;;;;;17.52;10.13;;;;;;;;;;5054748;28;20436;-82
2021/08/31 06:40:01;;;;;;;14.57;10.90;;;;;;;;;;5047044;28;20208;-82
2021/08/31 06:42:27;;;;;;;19.00;10.10;;;;;;;;;;5040830;28;20458;-82
2021/08/31 06:44:53;;;;;;;12.13;8.47;;;;;;;;;;5064590;28;20435;-81
2021/08/31 06:47:19;;;;;;;12.77;8.63;;;;;;;;;;5047330;28;20537;-82
2021/08/31 06:49:45;;;;;;;10.95;8.60;;;;;;;;;;5048934;28;21042;-81
2021/08/31 06:52:11;;;;;;;13.05;8.88;;;;;;;;;;5047377;28;20656;-83
2021/08/31 06:54:37;;;;;;;14.50;10.10;;;;;;;;;;5042634;28;20648;-82
2021/08/31 06:57:04;;;;;;;16.92;9.23;;;;;;;;;;5048000;28;20517;-82
2021/08/31 06:59:33;;;;;;;13.73;8.20;;;;;;;;;;5044175;28;20177;-82
2021/08/31 07:02:00;;;;;;;21.33;9.20;;;;;;;;;;5046888;28;20192;-82
2021/08/31 07:04:28;;;;;;;14.02;8.95;;;;;;;;;;5043666;28;20181;-82
2021/08/31 07:07:00;;;;;;;13.38;9.90;;;;;;;;;;5057473;28;20193;-82
2021/08/31 07:09:26;;;;;;;13.40;9.25;;;;;;;;;;5041040;28;20214;-82
2021/08/31 07:11:54;;;;;;;15.10;9.60;;;;;;;;;;5049391;28;20213;-82
2021/08/31 07:14:20;;;;;;;15.15;9.45;;;;;;;;;;5057321;28;20431;-82
2021/08/31 07:16:46;;;;;;;12.68;9.05;;;;;;;;;;5051744;28;20182;-83
2021/08/31 07:19:12;;;;;;;14.67;9.80;;;;;;;;;;5047429;28;20252;-82
2021/08/31 07:21:38;;;;;;;14.35;10.45;;;;;;;;;;5041304;28;20449;-82
2021/08/31 07:24:04;;;;;;;15.52;9.68;;;;;;;;;;5062346;28;20254;-82
2021/08/31 07:26:30;;;;;;;18.48;9.80;;;;;;;;;;5046417;28;20609;-82
2021/08/31 07:28:56;;;;;;;14.00;10.07;;;;;;;;;;5049997;28;20211;-81
2021/08/31 07:31:23;;;;;;;16.50;9.73;;;;;;;;;;5055808;28;20440;-82
2021/08/31 07:33:49;;;;;;;12.25;9.02;;;;;;;;;;5044364;28;20594;-82
2021/08/31 07:36:20;;;;;;;14.05;10.52;;;;;;;;;;5043583;28;20178;-81
2021/08/31 07:38:46;;;;;;;14.90;10.38;;;;;;;;;;5048333;28;20177;-83
2021/08/31 07:41:12;;;;;;;16.38;10.75;;;;;;;;;;5045773;28;20216;-82
2021/08/31 07:43:38;;;;;;;16.15;10.48;;;;;;;;;;5046847;28;20182;-82
2021/08/31 07:46:05;;;;;;;15.30;10.60;;;;;;;;;;5047058;28;20177;-83
2021/08/31 07:48:31;;;;;;;15.90;10.57;;;;;;;;;;5043631;28;20177;-81
2021/08/31 07:50:57;;;;;;;17.15;9.73;;;;;;;;;;5047310;28;20679;-82
2021/08/31 07:53:23;;;;;;;20.48;11.40;;;;;;;;;;5054263;28;20201;-83
2021/08/31 07:55:49;;;;;;;21.75;10.18;;;;;;;;;;5050563;28;20617;-83
2021/08/31 07:58:15;;;;;;;16.45;11.52;;;;;;;;;;5046729;28;20532;-83
2021/08/31 08:00:41;;;;;;;15.50;10.77;;;;;;;;;;5041745;28;20199;-83
2021/08/31 08:03:07;;;;;;;18.65;9.80;;;;;;;;;;5045695;28;21039;-82
2021/08/31 08:05:33;;;;;;;16.83;10.15;;;;;;;;;;5047401;28;20213;-83
2021/08/31 08:08:00;;;;;;;17.05;11.65;;;;;;;;;;5050591;28;20630;-82
2021/08/31 08:10:26;;;;;;;17.48;10.43;;;;;;;;;;5057318;28;20208;-82
2021/08/31 08:12:52;;;;;;;15.27;9.70;;;;;;;;;;5055970;28;20177;-82
2021/08/31 08:15:20;;;;;;;15.80;10.60;;;;;;;;;;5042213;28;20420;-82
2021/08/31 08:17:48;;;;;;;11.48;9.43;;;;;;;;;;5047392;28;20446;-83
2021/08/31 08:20:13;;;;;;;16.75;10.82;;;;;;;;;;5046594;28;20391;-82
2021/08/31 08:22:39;;;;;;;12.80;9.90;;;;;;;;;;5045274;28;20669;-82
2021/08/31 08:25:06;;;;;;;15.80;11.80;;;;;;;;;;5042525;28;20455;-84
2021/08/31 08:27:32;;;;;;;17.60;12.32;;;;;;;;;;5055398;28;20472;-82
2021/08/31 08:29:58;;;;;;;15.05;10.05;;;;;;;;;;5047645;28;20197;-82
2021/08/31 08:32:24;;;;;;;13.20;10.33;;;;;;;;;;5046938;28;20183;-83
2021/08/31 08:34:50;;;;;;;15.15;11.48;;;;;;;;;;5042496;28;20437;-81
2021/08/31 08:37:16;;;;;;;14.97;11.63;;;;;;;;;;5044870;28;20189;-84
2021/08/31 08:39:42;;;;;;;13.77;10.35;;;;;;;;;;5041463;28;20412;-82
2021/08/31 08:42:09;;;;;;;15.40;11.55;;;;;;;;;;5059951;28;20503;-83
2021/08/31 08:44:35;;;;;;;17.10;11.13;;;;;;;;;;5046234;28;20179;-83
2021/08/31 08:47:01;;;;;;;14.75;9.43;;;;;;;;;;5045482;28;20195;-82
2021/08/31 08:49:28;;;;;;;13.80;9.55;;;;;;;;;;5046030;28;20293;-82
2021/08/31 08:51:55;;;;;;;15.95;10.52;;;;;;;;;;5044679;28;20217;-82
2021/08/31 08:54:21;;;;;;;11.55;10.15;;;;;;;;;;5041889;28;20355;-82
2021/08/31 08:56:47;;;;;;;16.45;9.68;;;;;;;;;;5047923;28;20189;-82
2021/08/31 08:59:13;;;;;;;13.75;10.05;;;;;;;;;;5040715;28;20196;-82
2021/08/31 09:01:44;;;;;;;13.00;9.70;;;;;;;;;;5044710;28;20178;-82
2021/08/31 09:04:11;;;;;;;12.70;10.20;;;;;;;;;;5045387;28;20232;-83
2021/08/31 09:06:37;;;;;;;10.85;8.45;;;;;;;;;;5041826;28;20212;-81
2021/08/31 09:09:05;;;;;;;13.05;9.02;;;;;;;;;;5045659;28;20213;-82
2021/08/31 09:11:35;;;;;;;13.40;9.90;;;;;;;;;;5045803;28;20279;-83
2021/08/31 09:14:20;;;;;;;10.27;9.13;;;;;;;;;;5052750;28;20188;-82
2021/08/31 09:16:54;;;;;;;14.20;10.52;;;;;;;;;;5051095;28;20258;-82
2021/08/31 09:19:33;;;;;;;11.85;8.98;;;;;;;;;;5039506;28;20307;-82
2021/08/31 09:22:19;;;;;;;10.38;8.98;;;;;;;;;;5045055;28;20198;-83
2021/08/31 09:25:04;;;;;;;11.20;8.35;;;;;;;;;;5053808;28;20269;-82
2021/08/31 09:27:31;;;;;;;11.40;9.20;;;;;;;;;;5024078;28;20198;-82
2021/08/31 09:30:13;;;;;;;10.02;8.68;;;;;;;;;;5062704;28;20208;-82
2021/08/31 09:32:39;;;;;;;10.23;8.63;;;;;;;;;;5053876;28;20186;-82
2021/08/31 09:35:15;;;;;;;11.27;8.68;;;;;;;;;;5045545;28;20234;-83
2021/08/31 09:37:45;;;;;;;10.82;9.75;;;;;;;;;;5045055;28;20185;-82
2021/08/31 09:40:11;;;;;;;9.50;7.72;;;;;;;;;;5045609;28;20179;-82
2021/08/31 09:42:51;;;;;;;9.68;8.10;;;;;;;;;;5038301;28;20200;-82
2021/08/31 09:45:21;;;;;;;9.10;8.20;;;;;;;;;;5057950;28;20214;-82
2021/08/31 09:47:47;;;;;;;10.07;8.90;;;;;;;;;;5046354;28;20187;-83
2021/08/31 09:50:24;;;;;;;11.20;9.03;;;;;;;;;;5047893;28;20208;-82
2021/08/31 09:52:59;;;;;;;8.88;7.88;;;;;;;;;;5048582;28;20447;-82
2021/08/31 09:55:25;;;;;;;10.00;7.67;;;;;;;;;;5050606;28;20181;-82
2021/08/31 09:57:51;;;;;;;9.05;7.32;;;;;;;;;;5060052;28;20421;-83
2021/08/31 10:00:19;;;;;;;8.75;7.68;;;;;;;;;;5046185;28;20184;-83
2021/08/31 10:02:48;;;;;;;11.20;8.02;;;;;;;;;;5050008;28;20256;-83
2021/08/31 10:05:14;;;;;;;10.03;8.33;;;;;;;;;;5049810;28;20211;-82
2021/08/31 10:07:42;;;;;;;10.68;9.57;;;;;;;;;;5048567;28;20419;-83
2021/08/31 10:10:08;;;;;;;11.38;9.13;;;;;;;;;;5048278;28;20288;-83
2021/08/31 10:12:35;;;;;;;10.00;8.50;;;;;;;;;;5044147;28;20216;-82
2021/08/31 10:15:02;;;;;;;10.80;7.90;;;;;;;;;;5044041;28;20454;-82
2021/08/31 10:17:29;;;;;;;12.50;9.10;;;;;;;;;;5049977;28;20213;-83
2021/08/31 10:19:56;;;;;;;11.43;8.75;;;;;;;;;;5048539;28;20476;-82
2021/08/31 10:22:23;;;;;;;7.90;7.10;;;;;;;;;;5048409;28;20198;-82
2021/08/31 10:24:49;;;;;;;9.60;8.37;;;;;;;;;;5045293;28;20436;-81
2021/08/31 10:27:34;;;;;;;8.97;8.00;;;;;;;;;;5044605;28;20406;-82
2021/08/31 10:30:19;;;;;;;10.50;7.07;;;;;;;;;;5073613;28;20487;-82
2021/08/31 10:32:55;;;;;;;12.00;8.90;;;;;;;;;;5049296;28;20394;-83
2021/08/31 10:35:39;;;;;;;9.10;7.90;;;;;;;;;;5046933;28;20437;-83
2021/08/31 10:38:10;;;;;;;9.47;7.60;;;;;;;;;;5050992;28;20436;-83
2021/08/31 10:40:40;;;;;;;9.30;7.03;;;;;;;;;;5054493;28;20395;-83
2021/08/31 10:43:10;;;;;;;8.47;7.57;;;;;;;;;;5046135;28;20945;-82
2021/08/31 10:45:41;;;;;;;10.73;7.80;;;;;;;;;;5042237;28;20408;-82
2021/08/31 10:48:23;;;;;;;11.23;8.33;;;;;;;;;;5059864;28;20399;-82
2021/08/31 10:50:58;;;;;;;9.70;8.50;;;;;;;;;;5048044;28;20434;-83
2021/08/31 10:53:36;;;;;;;9.57;7.27;;;;;;;;;;5047692;28;20446;-83
2021/08/31 10:56:23;;;;;;;9.43;8.10;;;;;;;;;;5052259;28;20764;-83
2021/08/31 10:58:53;;;;;;;11.47;7.83;;;;;;;;;;5050889;28;20486;-81
2021/08/31 11:01:21;;;;;;;8.70;7.07;;;;;;;;;;5046937;28;20414;-83
2021/08/31 11:03:48;;;;;;;9.50;7.80;;;;;;;;;;5045486;28;20436;-83
2021/08/31 11:06:22;;;;;;;11.53;8.30;;;;;;;;;;5045353;28;20405;-83
2021/08/31 11:09:10;;;;;;;8.37;7.47;;;;;;;;;;5047334;28;20423;-83
2021/08/31 11:11:36;;;;;;;11.80;7.70;;;;;;;;;;5061482;28;20425;-82
2021/08/31 11:14:02;;;;;;;8.70;7.93;;;;;;;;;;5042697;28;20410;-81
2021/08/31 11:16:30;;;;;;;9.03;7.50;;;;;;;;;;5050532;28;20398;-83
2021/08/31 11:18:56;;;;;;;8.37;7.57;;;;;;;;;;5057593;28;20463;-82
2021/08/31 11:21:23;;;;;;;8.47;7.63;;;;;;;;;;5042325;28;20433;-84
2021/08/31 11:23:49;;;;;;;8.10;7.20;;;;;;;;;;5059202;28;20495;-83
2021/08/31 11:26:25;;;;;;;9.40;7.83;;;;;;;;;;5048988;28;20531;-82
2021/08/31 11:28:52;;;;;;;9.80;7.33;;;;;;;;;;5053674;28;20426;-84
2021/08/31 11:31:24;;;;;;;9.13;6.83;;;;;;;;;;5054715;28;20434;-83
2021/08/31 11:33:54;;;;;;;9.70;8.67;;;;;;;;;;5058515;28;20466;-83
2021/08/31 11:36:21;;;;;;;8.50;6.43;;;;;;;;;;5044095;28;21204;-83
2021/08/31 11:38:49;;;;;;;10.83;7.40;;;;;;;;;;5047774;28;20387;-83
2021/08/31 11:41:30;;;;;;;8.80;7.80;;;;;;;;;;5045753;28;20459;-83
2021/08/31 11:44:03;;;;;;;11.30;7.90;;;;;;;;;;5047052;28;20459;-82
2021/08/31 11:46:30;;;;;;;8.30;6.80;;;;;;;;;;5046133;28;20403;-84
2021/08/31 11:49:05;;;;;;;7.80;7.00;;;;;;;;;;5044920;28;20442;-83
2021/08/31 11:51:31;;;;;;;8.70;7.13;;;;;;;;;;5027176;28;20462;-83
2021/08/31 11:54:04;;;;;;;8.53;6.83;;;;;;;;;;5048534;28;20441;-82
2021/08/31 11:56:30;;;;;;;7.87;7.10;;;;;;;;;;5048250;28;20423;-82
2021/08/31 11:58:56;;;;;;;10.17;7.50;;;;;;;;;;5054006;28;20783;-82
2021/08/31 12:01:32;;;;;;;6.37;5.50;;;;;;;;;;5051706;28;20428;-83
2021/08/31 12:04:18;;;;;;;7.67;6.57;;;;;;;;;;5057689;28;20799;-82
2021/08/31 12:06:49;;;;;;;7.87;6.60;;;;;;;;;;5055299;28;20439;-83
2021/08/31 12:09:18;;;;;;;8.10;6.93;;;;;;;;;;5058174;28;20435;-82
2021/08/31 12:11:45;;;;;;;6.70;6.10;;;;;;;;;;5047262;28;20416;-83
2021/08/31 12:14:15;;;;;;;7.97;5.93;;;;;;;;;;5050976;28;20526;-82
2021/08/31 12:16:42;;;;;;;6.33;5.73;;;;;;;;;;5051302;28;20437;-83
2021/08/31 12:19:22;;;;;;;8.20;5.90;;;;;;;;;;5046357;28;20471;-82
2021/08/31 12:22:04;;;;;;;6.90;5.50;;;;;;;;;;5040640;28;20422;-82
2021/08/31 12:24:30;;;;;;;6.10;5.50;;;;;;;;;;5025228;28;20432;-82
2021/08/31 12:27:05;;;;;;;8.80;6.57;;;;;;;;;;5055428;28;20423;-83
2021/08/31 12:29:43;;;;;;;6.50;5.83;;;;;;;;;;5054428;28;20470;-83
2021/08/31 12:32:09;;;;;;;6.63;6.00;;;;;;;;;;5046401;28;20442;-84
2021/08/31 12:34:36;;;;;;;7.10;5.60;;;;;;;;;;5045998;28;20425;-82
2021/08/31 12:37:02;;;;;;;5.90;5.30;;;;;;;;;;5044551;28;20511;-83
2021/08/31 12:39:29;;;;;;;6.03;5.43;;;;;;;;;;5039719;28;20444;-83
2021/08/31 12:41:55;;;;;;;6.17;5.47;;;;;;;;;;5047837;28;20413;-83
2021/08/31 12:44:22;;;;;;;5.40;4.60;;;;;;;;;;5054555;28;20435;-83
2021/08/31 12:46:50;;;;;;;6.90;6.23;;;;;;;;;;5050950;28;20523;-83
2021/08/31 12:49:18;;;;;;;5.57;5.17;;;;;;;;;;5044132;28;20875;-82
2021/08/31 12:51:51;;;;;;;5.33;4.87;;;;;;;;;;5043305;28;20447;-82
2021/08/31 12:54:35;;;;;;;5.27;4.87;;;;;;;;;;5058122;28;20433;-82
2021/08/31 12:57:03;;;;;;;5.63;5.13;;;;;;;;;;5055991;28;20423;-83
2021/08/31 12:59:39;;;;;;;5.77;5.27;;;;;;;;;;5045508;28;20416;-82
2021/08/31 13:02:07;;;;;;;5.67;5.07;;;;;;;;;;5046060;28;20436;-82
2021/08/31 13:04:34;;;;;;;5.30;4.80;;;;;;;;;;5043403;28;20439;-83
2021/08/31 13:07:18;;;;;;;5.70;5.30;;;;;;;;;;5045163;28;20465;-83
2021/08/31 13:09:46;;;;;;;5.10;4.03;;;;;;;;;;5055647;28;20473;-83
2021/08/31 13:12:13;;;;;;;4.90;4.60;;;;;;;;;;5042497;28;20480;-83
2021/08/31 13:14:39;;;;;;;4.80;4.40;;;;;;;;;;5046135;28;20775;-82
2021/08/31 13:17:06;;;;;;;5.50;4.97;;;;;;;;;;5045700;28;20513;-83
2021/08/31 13:19:32;;;;;;;5.77;5.37;;;;;;;;;;5045368;28;20472;-83
2021/08/31 13:22:00;;;;;;;6.17;5.13;;;;;;;;;;5045011;28;20977;-81
2021/08/31 13:24:26;;;;;;;5.50;5.00;;;;;;;;;;5042321;28;20504;-81
2021/08/31 13:26:52;;;;;;;4.47;4.07;;;;;;;;;;5050279;28;20800;-81
2021/08/31 13:29:19;;;;;;;4.97;4.47;;;;;;;;;;5049396;28;20513;-81
2021/08/31 13:31:45;;;;;;;4.20;3.90;;;;;;;;;;5049781;28;20425;-81
2021/08/31 13:34:11;;;;;;;4.40;4.00;;;;;;;;;;5049124;28;20438;-81
2021/08/31 13:36:37;;;;;;;4.27;3.97;;;;;;;;;;5043507;28;20445;-81
2021/08/31 13:39:04;;;;;;;5.53;4.40;;;;;;;;;;5048567;28;20503;-80
2021/08/31 13:41:33;;;;;;;4.40;4.00;;;;;;;;;;5049207;28;20421;-81
2021/08/31 13:43:59;;;;;;;4.70;4.30;;;;;;;;;;5052637;28;20439;-79
2021/08/31 13:46:25;;;;;;;4.40;4.00;;;;;;;;;;5060373;28;20454;-81
2021/08/31 13:48:51;;;;;;;5.67;4.50;;;;;;;;;;5059947;28;20959;-80
2021/08/31 13:51:17;;;;;;;5.17;4.77;;;;;;;;;;5046318;28;20492;-82
2021/08/31 13:53:43;;;;;;;4.40;4.00;;;;;;;;;;5063601;28;20416;-80
2021/08/31 13:56:09;;;;;;;5.20;4.80;;;;;;;;;;5056409;28;20434;-81
2021/08/31 13:58:36;;;;;;;4.57;4.17;;;;;;;;;;5060186;28;20545;-81
2021/08/31 14:01:02;;;;;;;5.00;4.60;;;;;;;;;;5058644;28;20531;-81
2021/08/31 14:03:28;;;;;;;4.53;4.17;;;;;;;;;;5042920;28;20456;-82
2021/08/31 14:05:54;;;;;;;5.77;4.20;;;;;;;;;;5045225;28;20424;-81
2021/08/31 14:08:20;;;;;;;4.53;4.13;;;;;;;;;;5048248;28;20502;-81
2021/08/31 14:10:46;;;;;;;4.90;4.13;;;;;;;;;;5044725;28;20475;-80
2021/08/31 14:13:12;;;;;;;4.67;4.23;;;;;;;;;;5048628;28;20526;-81
2021/08/31 14:15:44;;;;;;;5.20;4.70;;;;;;;;;;5043571;28;20440;-80
2021/08/31 14:18:10;;;;;;;6.07;4.80;;;;;;;;;;5061814;28;20521;-81
2021/08/31 14:20:37;;;;;;;5.17;3.80;;;;;;;;;;5049948;28;20467;-81
2021/08/31 14:23:03;;;;;;;4.73;4.23;;;;;;;;;;5048313;28;20440;-81
2021/08/31 14:25:30;;;;;;;5.23;4.73;;;;;;;;;;5048442;28;20444;-81
2021/08/31 14:27:56;;;;;;;5.63;5.13;;;;;;;;;;5046714;28;20494;-80
2021/08/31 14:30:22;;;;;;;5.40;4.50;;;;;;;;;;5044287;28;20480;-81
2021/08/31 14:32:48;;;;;;;5.40;5.00;;;;;;;;;;5049089;28;20431;-81
2021/08/31 14:35:14;;;;;;;4.90;4.40;;;;;;;;;;5047145;28;20551;-81
2021/08/31 14:37:40;;;;;;;4.57;4.10;;;;;;;;;;5047945;28;20436;-80